Time;durP1;ratioP1;P1;durP2;ratioP2;P2;SDS_P1;SDS_P2;PMS_P1;PMS_P2;Temp;Humidity;BMP_temperature;BMP_pressure;BME280_temperature;BME280_humidity;BME280_pressure;Samples;Min_cycle;Max_cycle;Signal;HPM_P1;HPM_P2
2022/09/12 00:01:30;;;;;;;;;2.00;2.00;;;;;21.87;55.35;99213.78;5003086;28;8852;-79
2022/09/12 00:04:01;;;;;;;;;4.40;4.00;;;;;22.02;54.96;99199.69;5087412;28;8865;-81
2022/09/12 00:06:32;;;;;;;;;4.00;4.00;;;;;21.61;56.14;99205.38;5085080;28;8858;-79
2022/09/12 00:09:04;;;;;;;;;3.00;3.00;;;;;21.72;56.10;99216.31;5074406;28;8834;-79
2022/09/12 00:11:35;;;;;;;;;4.00;3.20;;;;;21.87;55.76;99213.78;5090328;28;8853;-81
2022/09/12 00:14:07;;;;;;;;;4.80;4.80;;;;;21.75;56.09;99212.63;5054096;28;8841;-79
2022/09/12 00:16:36;;;;;;;;;3.80;3.80;;;;;21.53;56.81;99219.06;5087312;28;8838;-80
2022/09/12 00:19:06;;;;;;;;;3.00;3.00;;;;;21.94;55.61;99215.19;5069801;28;8888;-79
2022/09/12 00:21:37;;;;;;;;;4.40;4.40;;;;;21.87;56.02;99216.44;5069669;28;9920;-80
2022/09/12 00:24:08;;;;;;;;;4.40;4.00;;;;;21.73;56.60;99214.50;5082406;28;8846;-80
2022/09/12 00:26:37;;;;;;;;;4.80;4.80;;;;;21.76;56.16;99220.53;5069736;28;8850;-80
2022/09/12 00:29:05;;;;;;;;;5.60;4.60;;;;;21.82;56.29;99216.69;5071035;28;8856;-80
2022/09/12 00:31:34;;;;;;;;;2.80;2.80;;;;;21.85;56.50;99210.34;5069389;28;8862;-79
2022/09/12 00:34:03;;;;;;;;;3.00;3.00;;;;;21.83;56.33;99213.06;5069907;28;8933;-80
2022/09/12 00:36:31;;;;;;;;;4.00;4.00;;;;;21.67;57.01;99214.84;5084247;28;8894;-80
2022/09/12 00:39:00;;;;;;;;;3.00;3.00;;;;;21.83;56.68;99217.53;5066954;28;8866;-80
2022/09/12 00:41:32;;;;;;;;;4.20;4.20;;;;;21.85;56.54;99213.00;5084410;28;9030;-81
2022/09/12 00:44:04;;;;;;;;;4.40;3.40;;;;;21.84;56.70;99213.97;5067699;28;8889;-79
2022/09/12 00:46:39;;;;;;;;;4.20;3.20;;;;;21.41;58.41;99209.88;5073186;28;9602;-78
2022/09/12 00:49:13;;;;;;;;;5.60;4.60;;;;;21.74;57.21;99209.13;5087648;28;8916;-81
2022/09/12 00:51:45;;;;;;;;;4.00;4.00;;;;;21.57;57.87;99207.34;5105852;28;8882;-84
2022/09/12 00:54:20;;;;;;;;;3.60;3.60;;;;;21.59;57.89;99210.78;5073460;28;8847;-85
2022/09/12 00:57:09;;;;;;;;;3.60;2.80;;;;;21.30;59.19;99216.66;5089833;28;8856;-80
2022/09/12 00:59:42;;;;;;;;;3.00;3.00;;;;;21.64;57.93;99207.88;5067931;28;8846;-79
2022/09/12 01:02:11;;;;;;;;;4.60;4.00;;;;;21.26;59.17;99217.75;5068343;28;8888;-79
2022/09/12 01:04:42;;;;;;;;;3.00;3.00;;;;;21.66;57.71;99210.44;5101506;28;8846;-80
2022/09/12 01:07:14;;;;;;;;;1.20;1.00;;;;;21.80;57.28;99208.81;5065032;28;8850;-79
2022/09/12 01:09:44;;;;;;;;;4.00;3.00;;;;;21.95;56.91;99206.28;5088100;28;9068;-79
2022/09/12 01:12:15;;;;;;;;;3.40;3.00;;;;;21.84;57.26;99208.66;5086480;28;8859;-80
2022/09/12 01:14:44;;;;;;;;;3.20;3.20;;;;;21.87;57.07;99209.34;5069058;28;8852;-79
2022/09/12 01:17:15;;;;;;;;;2.00;2.00;;;;;21.96;57.05;99208.00;5087208;28;8874;-79
2022/09/12 01:20:16;;;;;;;;;3.00;3.00;;;;;22.02;56.97;99207.66;5085969;28;8865;-81
2022/09/12 01:23:20;;;;;;;;;3.60;3.60;;;;;21.95;57.13;99207.13;5009448;28;8849;-81
2022/09/12 01:26:03;;;;;;;;;2.20;2.20;;;;;21.95;56.84;99212.44;4968544;28;8880;-80
2022/09/12 01:28:56;;;;;;;;;3.40;3.40;;;;;21.94;57.14;99216.03;4950095;28;8845;-79
2022/09/12 01:31:34;;;;;;;;;4.40;3.00;;;;;21.96;56.94;99206.19;4934554;28;9005;-80
2022/09/12 01:34:13;;;;;;;;;3.00;3.00;;;;;21.85;57.25;99205.88;4966572;28;8858;-78
2022/09/12 01:36:56;;;;;;;;;3.00;2.80;;;;;21.45;58.44;99200.00;4966186;28;8852;-80
2022/09/12 01:39:33;;;;;;;;;3.00;3.00;;;;;21.38;58.95;99211.84;4966053;28;8939;-78
2022/09/12 01:42:10;;;;;;;;;2.40;2.40;;;;;21.02;59.80;99213.59;4966831;28;8879;-80
2022/09/12 01:44:51;;;;;;;;;3.00;3.00;;;;;21.07;59.87;99209.84;4950499;28;8926;-80
2022/09/12 01:47:27;;;;;;;;;3.00;3.00;;;;;21.13;59.66;99209.53;4950945;28;8888;-81
2022/09/12 01:50:02;;;;;;;;;4.20;3.00;;;;;20.73;60.95;99208.81;4965834;28;8846;-79
2022/09/12 01:52:39;;;;;;;;;2.00;2.00;;;;;21.05;59.93;99212.56;4967419;28;9019;-80
2022/09/12 01:55:12;;;;;;;;;2.80;2.80;;;;;20.97;59.94;99205.00;4966209;28;8881;-78
2022/09/12 01:57:46;;;;;;;;;2.40;2.40;;;;;20.76;60.71;99209.53;4970192;28;8875;-79
2022/09/12 02:00:16;;;;;;;;;2.00;2.00;;;;;20.57;61.30;99212.16;4990865;28;8866;-80
2022/09/12 02:02:51;;;;;;;;;2.00;2.00;;;;;20.71;60.97;99219.50;5035299;28;8921;-83
2022/09/12 02:05:28;;;;;;;;;2.00;2.00;;;;;20.03;63.03;99221.72;5086773;28;9654;-79
2022/09/12 02:08:02;;;;;;;;;1.20;1.20;;;;;20.29;62.43;99214.38;5066241;28;9002;-79
2022/09/12 02:10:36;;;;;;;;;3.00;3.00;;;;;20.50;61.63;99215.19;5066065;28;8953;-80
2022/09/12 02:13:09;;;;;;;;;1.60;1.60;;;;;20.52;61.41;99214.16;5067416;28;8861;-79
2022/09/12 02:15:43;;;;;;;;;1.00;1.00;;;;;19.80;64.27;99207.69;5082775;28;8872;-80
2022/09/12 02:18:16;;;;;;;;;3.00;2.00;;;;;20.24;62.67;99206.63;5048622;28;8905;-84
2022/09/12 02:20:48;;;;;;;;;1.60;1.60;;;;;20.16;62.73;99209.63;5065776;28;8955;-79
2022/09/12 02:23:20;;;;;;;;;1.00;1.00;;;;;20.38;61.87;99208.66;5081350;28;8943;-80
2022/09/12 02:25:54;;;;;;;;;1.40;1.40;;;;;20.35;62.14;99203.50;5066093;28;8931;-79
2022/09/12 02:28:28;;;;;;;;;0.20;0.20;;;;;20.43;61.65;99198.69;5099425;28;8853;-79
2022/09/12 02:31:12;;;;;;;;;1.00;1.00;;;;;20.45;61.61;99203.00;5067272;28;8861;-79
2022/09/12 02:33:49;;;;;;;;;2.60;1.00;;;;;20.20;62.41;99210.34;5065313;28;8854;-80
2022/09/12 02:36:30;;;;;;;;;1.00;1.00;;;;;20.14;62.70;99200.06;5069050;28;8868;-80
2022/09/12 02:38:59;;;;;;;;;1.80;1.80;;;;;19.86;63.40;99207.41;5083823;28;8894;-79
2022/09/12 02:41:28;;;;;;;;;1.00;1.00;;;;;19.93;63.18;99208.03;5083382;28;8888;-78
2022/09/12 02:43:56;;;;;;;;;2.20;1.40;;;;;19.67;64.07;99215.28;5048383;28;8848;-80
2022/09/12 02:46:33;;;;;;;;;1.00;1.00;;;;;19.51;64.96;99208.06;5064900;28;8905;-78
2022/09/12 02:49:03;;;;;;;;;1.00;1.00;;;;;19.65;64.14;99219.78;5067412;28;8836;-80
2022/09/12 02:51:31;;;;;;;;;3.00;2.00;;;;;19.63;64.21;99215.47;5051229;28;9037;-79
2022/09/12 02:54:01;;;;;;;;;1.00;1.00;;;;;19.73;63.69;99215.97;5070319;28;8882;-79
2022/09/12 02:56:31;;;;;;;;;2.40;1.00;;;;;19.67;63.69;99209.97;5086192;28;8858;-80
2022/09/12 02:59:05;;;;;;;;;0.80;0.80;;;;;19.80;63.67;99214.78;5046074;28;8859;-78
2022/09/12 03:01:50;;;;;;;;;0.00;0.00;;;;;19.92;63.06;99211.59;5091076;28;8925;-78
2022/09/12 03:04:40;;;;;;;;;1.00;1.00;;;;;19.52;64.66;99225.66;5107496;28;8876;-81
2022/09/12 03:07:16;;;;;;;;;0.00;0.00;;;;;19.62;64.03;99221.69;5090189;28;9040;-84
2022/09/12 03:09:49;;;;;;;;;10.60;10.00;;;;;19.20;65.94;99234.00;5080512;28;8983;-78
2022/09/12 03:12:33;;;;;;;;;1.00;1.00;;;;;18.62;68.58;99233.63;5086103;28;8839;-80
2022/09/12 03:15:19;;;;;;;;;11.00;9.40;;;;;19.01;67.24;99239.16;5088754;28;9015;-78
2022/09/12 03:18:04;;;;;;;;;16.60;16.40;;;;;19.14;66.50;99228.13;5108560;28;8855;-78
2022/09/12 03:20:44;;;;;;;;;0.40;0.40;;;;;19.12;66.58;99224.69;5108575;28;8960;-79
2022/09/12 03:23:24;;;;;;;;;0.40;0.40;;;;;19.42;65.27;99231.34;5109093;28;8840;-80
2022/09/12 03:25:59;;;;;;;;;3.00;2.00;;;;;19.28;65.99;99221.34;5088799;28;8879;-80
2022/09/12 03:28:29;;;;;;;;;1.80;1.20;;;;;19.21;66.04;99237.53;5087815;28;8856;-81
2022/09/12 03:30:58;;;;;;;;;1.20;1.20;;;;;19.08;66.80;99239.81;5054746;28;8856;-79
2022/09/12 03:33:27;;;;;;;;;15.00;15.00;;;;;19.00;67.09;99237.47;5087549;28;9014;-79
2022/09/12 03:35:57;;;;;;;;;2.80;2.80;;;;;18.72;68.12;99235.03;5067387;28;8855;-79
2022/09/12 03:38:26;;;;;;;;;1.00;1.00;;;;;18.72;68.28;99239.44;5070234;28;9559;-83
2022/09/12 03:40:54;;;;;;;;;1.00;1.00;;;;;18.82;67.92;99244.31;5070393;28;8845;-79
2022/09/12 03:43:23;;;;;;;;;5.00;5.00;;;;;18.93;67.43;99241.28;5074899;28;8862;-79
2022/09/12 03:45:52;;;;;;;;;3.80;3.80;;;;;18.98;67.07;99238.44;5050369;28;8843;-82
2022/09/12 03:48:20;;;;;;;;;4.20;4.00;;;;;19.02;66.80;99237.41;5067377;28;8890;-79
2022/09/12 03:50:49;;;;;;;;;1.20;1.20;;;;;18.94;67.31;99236.84;5074897;28;8884;-79
2022/09/12 03:53:19;;;;;;;;;3.20;2.20;;;;;19.07;66.54;99238.06;5041592;28;8947;-79
2022/09/12 03:55:47;;;;;;;;;35.25;30.00;;;;;19.11;66.40;99234.41;5047266;28;8866;-80
2022/09/12 03:58:16;;;;;;;;;2.40;2.40;;;;;19.01;66.43;99241.81;5054308;28;8980;-78
2022/09/12 04:00:44;;;;;;;;;3.00;2.40;;;;;19.22;65.85;99237.44;5067029;28;8981;-79
2022/09/12 04:03:13;;;;;;;;;3.80;3.40;;;;;19.28;65.84;99236.31;5049916;28;8879;-79
2022/09/12 04:05:42;;;;;;;;;1.60;1.60;;;;;19.19;66.25;99239.38;5052580;28;8834;-79
2022/09/12 04:08:10;;;;;;;;;4.00;3.20;;;;;19.48;65.07;99244.28;5064580;28;8984;-79
2022/09/12 04:10:40;;;;;;;;;53.25;44.25;;;;;19.22;66.15;99241.88;5032589;28;8962;-78
2022/09/12 04:13:09;;;;;;;;;3.00;3.00;;;;;19.50;64.87;99244.22;5069010;28;8838;-79
2022/09/12 04:15:37;;;;;;;;;1.80;1.60;;;;;19.31;65.45;99238.84;5069525;28;8869;-78
2022/09/12 04:18:05;;;;;;;;;2.60;2.00;;;;;19.50;64.68;99238.94;5068718;28;8850;-80
2022/09/12 04:20:36;;;;;;;;;2.80;2.80;;;;;19.55;64.63;99236.13;5069707;28;8882;-79
2022/09/12 04:23:05;;;;;;;;;3.00;3.00;;;;;19.65;64.15;99248.03;5067915;28;8870;-77
2022/09/12 04:25:33;;;;;;;;;3.00;3.00;;;;;19.55;64.18;99239.63;5068835;28;9107;-78
2022/09/12 04:28:03;;;;;;;;;4.60;3.20;;;;;19.69;63.79;99236.38;5073508;28;8872;-81
2022/09/12 04:30:33;;;;;;;;;3.40;3.40;;;;;19.74;63.54;99236.22;5068976;28;8865;-78
2022/09/12 04:33:02;;;;;;;;;2.40;2.40;;;;;19.60;64.01;99240.28;5083128;28;8843;-79
2022/09/12 04:35:36;;;;;;;;;2.00;2.00;;;;;19.48;64.43;99246.94;5093261;28;8903;-79
2022/09/12 04:38:04;;;;;;;;;3.00;3.00;;;;;19.07;65.98;99248.63;5083914;28;8843;-80
2022/09/12 04:40:33;;;;;;;;;1.40;1.40;;;;;18.97;66.39;99245.50;5049166;28;8874;-84
2022/09/12 04:43:03;;;;;;;;;2.80;2.80;;;;;19.31;65.34;99249.44;5113599;27;9003;-79
2022/09/12 04:45:31;;;;;;;;;3.80;3.80;;;;;18.94;66.55;99264.16;5067190;28;8948;-80
2022/09/12 04:48:00;;;;;;;;;4.00;3.40;;;;;19.29;65.29;99262.72;5029717;28;8846;-80
2022/09/12 04:50:28;;;;;;;;;2.40;2.40;;;;;19.52;64.31;99262.69;5086703;28;8847;-80
2022/09/12 04:52:57;;;;;;;;;5.00;4.00;;;;;19.48;64.48;99264.59;5074083;28;8870;-77
2022/09/12 04:55:26;;;;;;;;;4.00;4.00;;;;;19.24;65.13;99261.19;5081903;28;8860;-81
2022/09/12 04:57:54;;;;;;;;;4.20;4.00;;;;;19.58;63.95;99262.44;5067779;28;8842;-78
2022/09/12 05:00:24;;;;;;;;;4.20;4.20;;;;;19.12;65.30;99261.69;5068573;28;8846;-81
2022/09/12 05:02:53;;;;;;;;;3.60;3.60;;;;;19.30;64.93;99274.16;5081321;28;8884;-79
2022/09/12 05:05:22;;;;;;;;;4.80;4.80;;;;;19.32;64.92;99274.06;5068724;28;8858;-80
2022/09/12 05:07:51;;;;;;;;;5.40;4.40;;;;;19.53;64.03;99278.50;5066574;28;8877;-80
2022/09/12 05:10:19;;;;;;;;;4.00;4.00;;;;;19.24;65.04;99293.78;5070055;28;8843;-79
2022/09/12 05:12:48;;;;;;;;;4.80;3.80;;;;;19.45;64.41;99277.94;5090795;28;8852;-82
2022/09/12 05:15:16;;;;;;;;;5.40;5.00;;;;;19.52;64.09;99282.06;5081927;28;8858;-79
2022/09/12 05:17:46;;;;;;;;;4.80;4.40;;;;;19.57;64.01;99276.59;5093444;28;8871;-81
2022/09/12 05:20:16;;;;;;;;;4.00;3.00;;;;;19.46;63.76;99282.31;5084933;28;8831;-80
2022/09/12 05:22:44;;;;;;;;;4.80;4.80;;;;;19.60;63.58;99281.72;5067365;28;8846;-80
2022/09/12 05:25:13;;;;;;;;;5.80;5.80;;;;;19.70;63.13;99291.03;5081884;28;8874;-81
2022/09/12 05:27:41;;;;;;;;;4.40;4.40;;;;;19.41;64.11;99287.81;5115848;27;8917;-80
2022/09/12 05:30:12;;;;;;;;;5.00;5.00;;;;;19.47;63.75;99292.00;5081486;28;8874;-80
2022/09/12 05:32:41;;;;;;;;;5.60;5.00;;;;;19.65;63.67;99293.84;5084480;28;8872;-80
2022/09/12 05:35:11;;;;;;;;;5.00;4.80;;;;;19.70;63.05;99292.78;5082300;28;8874;-79
2022/09/12 05:37:40;;;;;;;;;5.00;4.00;;;;;19.98;62.30;99292.50;5082848;28;8852;-80
2022/09/12 05:40:09;;;;;;;;;6.20;5.00;;;;;20.15;61.67;99283.81;5066701;28;8897;-81
2022/09/12 05:42:38;;;;;;;;;4.60;4.60;;;;;20.21;61.41;99291.53;5072450;28;8862;-81
2022/09/12 05:45:08;;;;;;;;;4.00;4.00;;;;;20.57;60.38;99282.84;5066336;28;8868;-81
2022/09/12 05:47:36;;;;;;;;;5.00;5.00;;;;;20.38;60.51;99288.13;5062583;28;8846;-81
2022/09/12 05:50:09;;;;;;;;;4.00;4.00;;;;;20.10;61.47;99283.19;5044750;28;8880;-78
2022/09/12 05:52:39;;;;;;;;;4.20;4.20;;;;;20.44;60.82;99290.50;5065989;28;8979;-79
2022/09/12 05:55:10;;;;;;;;;7.00;7.00;;;;;20.39;61.03;99282.72;5066964;28;8853;-79
2022/09/12 05:57:39;;;;;;;;;6.20;5.80;;;;;20.64;59.92;99284.28;5073024;28;8877;-79
2022/09/12 06:00:09;;;;;;;;;5.40;4.20;;;;;20.74;59.99;99282.09;5066032;28;8870;-80
2022/09/12 06:02:41;;;;;;;;;5.80;5.00;;;;;20.62;60.02;99280.84;5116009;27;9896;-79
2022/09/12 06:05:09;;;;;;;;;6.40;5.40;;;;;20.74;59.37;99282.09;5035793;28;8836;-78
2022/09/12 06:07:39;;;;;;;;;7.40;7.40;;;;;20.37;60.39;99274.00;5036520;28;8863;-79
2022/09/12 06:10:10;;;;;;;;;6.60;6.60;;;;;20.66;59.69;99279.78;5101667;28;8913;-80
2022/09/12 06:12:39;;;;;;;;;5.60;5.60;;;;;20.74;59.49;99280.31;5093445;28;8941;-81
2022/09/12 06:15:09;;;;;;;;;7.00;6.00;;;;;20.91;59.07;99281.31;5090766;28;8853;-79
2022/09/12 06:17:37;;;;;;;;;5.20;4.00;;;;;21.23;58.35;99279.78;5093658;28;8877;-80
2022/09/12 06:20:07;;;;;;;;;6.00;6.00;;;;;20.64;59.91;99279.88;5070197;28;8843;-82
2022/09/12 06:22:35;;;;;;;;;6.00;5.40;;;;;21.10;58.76;99282.16;5060987;28;8948;-80
2022/09/12 06:25:07;;;;;;;;;7.00;6.00;;;;;20.58;60.54;99285.41;5085509;28;8873;-80
2022/09/12 06:27:36;;;;;;;;;4.80;4.00;;;;;20.93;59.42;99288.25;5087403;28;8878;-78
2022/09/12 06:30:05;;;;;;;;;4.60;4.60;;;;;20.73;59.88;99283.88;5090101;28;8855;-78
2022/09/12 06:32:35;;;;;;;;;4.80;4.80;;;;;20.67;59.73;99278.88;5085160;28;8848;-81
2022/09/12 06:35:04;;;;;;;;;5.40;5.40;;;;;21.07;58.76;99284.09;5086434;28;8899;-77
2022/09/12 06:37:32;;;;;;;;;5.40;5.40;;;;;21.15;58.68;99285.44;5013629;28;8889;-80
2022/09/12 06:40:02;;;;;;;;;5.40;5.00;;;;;21.31;58.21;99290.00;5084501;28;8860;-79
2022/09/12 06:42:33;;;;;;;;;4.00;4.00;;;;;21.66;57.06;99285.59;5052663;28;8816;-80
2022/09/12 06:45:01;;;;;;;;;4.40;4.00;;;;;21.61;56.38;99285.00;5019911;28;8848;-68
2022/09/12 06:47:30;;;;;;;;;4.60;4.40;;;;;20.72;60.00;99286.59;5027102;28;8872;-69
2022/09/12 06:49:59;;;;;;;;;6.00;6.00;;;;;20.90;59.41;99288.38;5027303;28;8890;-81
2022/09/12 06:52:28;;;;;;;;;9.00;8.00;;;;;20.97;59.11;99287.16;5028588;28;8892;-79
2022/09/12 06:54:56;;;;;;;;;5.40;5.00;;;;;20.63;59.62;99287.88;5029877;28;8962;-79
2022/09/12 06:57:28;;;;;;;;;4.60;4.60;;;;;20.36;61.16;99288.19;5027957;28;9069;-79
2022/09/12 06:59:58;;;;;;;;;8.20;6.60;;;;;20.19;61.75;99296.03;5011223;28;9019;-79
2022/09/12 07:02:27;;;;;;;;;6.40;5.40;;;;;20.51;60.60;99304.31;5027294;28;8915;-77
2022/09/12 07:04:55;;;;;;;;;6.60;6.60;;;;;20.20;61.36;99305.69;5065419;28;8873;-78
2022/09/12 07:07:24;;;;;;;;;9.20;9.20;;;;;20.27;61.78;99303.63;5067265;28;9085;-77
2022/09/12 07:09:53;;;;;;;;;6.80;6.20;;;;;20.64;60.04;99300.19;5066780;28;8872;-76
2022/09/12 07:12:21;;;;;;;;;6.80;6.80;;;;;20.57;60.26;99304.91;5049947;28;8818;-77
2022/09/12 07:14:50;;;;;;;;;7.80;7.80;;;;;19.89;63.08;99311.44;5050096;28;8908;-77
2022/09/12 07:17:19;;;;;;;;;7.20;7.20;;;;;20.20;61.92;99309.19;5069687;28;8886;-80
2022/09/12 07:19:48;;;;;;;;;7.00;7.00;;;;;20.48;60.99;99310.59;5067675;28;9624;-79
2022/09/12 07:22:16;;;;;;;;;9.20;8.20;;;;;20.95;59.24;99306.75;5068449;28;8896;-78
2022/09/12 07:24:45;;;;;;;;;8.20;8.00;;;;;21.06;58.55;99312.41;5069874;28;8865;-77
2022/09/12 07:27:14;;;;;;;;;10.20;10.20;;;;;21.00;58.73;99317.97;5083035;28;8973;-77
2022/09/12 07:29:43;;;;;;;;;8.00;7.40;;;;;21.18;58.34;99309.16;5087106;28;8867;-74
2022/09/12 07:32:11;;;;;;;;;7.80;7.80;;;;;20.86;59.22;99310.66;5092234;28;8878;-76
2022/09/12 07:34:41;;;;;;;;;7.00;7.00;;;;;20.80;59.18;99318.91;5088948;28;8860;-77
2022/09/12 07:37:10;;;;;;;;;8.60;8.00;;;;;20.44;60.25;99311.69;5089312;28;8978;-77
2022/09/12 07:39:38;;;;;;;;;12.60;9.40;;;;;20.61;60.47;99321.53;5082640;28;8876;-78
2022/09/12 07:42:07;;;;;;;;;7.80;7.80;;;;;20.31;61.20;99321.94;5089346;28;8852;-77
2022/09/12 07:44:35;;;;;;;;;9.80;9.00;;;;;20.35;60.23;99323.53;5085110;28;8878;-77
2022/09/12 07:47:04;;;;;;;;;7.80;7.80;;;;;19.80;61.83;99336.50;5085625;28;8849;-76
2022/09/12 07:49:32;;;;;;;;;8.80;8.20;;;;;19.53;63.04;99338.44;5089424;28;8854;-78
2022/09/12 07:52:03;;;;;;;;;9.00;8.40;;;;;19.82;62.72;99335.50;5034932;28;8851;-76
2022/09/12 07:54:32;;;;;;;;;11.20;8.80;;;;;20.02;62.13;99324.09;5088060;28;9032;-76
2022/09/12 07:57:00;;;;;;;;;9.40;9.20;;;;;19.87;60.77;99335.34;5067924;28;8957;-78
2022/09/12 07:59:29;;;;;;;;;7.00;7.00;;;;;19.95;60.89;99333.22;5072168;28;8974;-75
2022/09/12 08:02:18;;;;;;;;;10.60;9.80;;;;;19.95;60.37;99335.00;5090108;28;8859;-75
2022/09/12 08:04:48;;;;;;;;;7.20;7.20;;;;;19.78;60.21;99327.78;5088125;28;8869;-77
2022/09/12 08:07:18;;;;;;;;;8.80;8.00;;;;;19.96;60.06;99336.72;5050305;28;8878;-79
2022/09/12 08:09:47;;;;;;;;;10.40;9.60;;;;;19.93;59.89;99334.22;5067523;28;8897;-76
2022/09/12 08:12:16;;;;;;;;;8.60;8.60;;;;;20.20;59.20;99335.66;5070046;28;8844;-77
2022/09/12 08:14:45;;;;;;;;;7.40;7.00;;;;;20.42;57.60;99329.44;5066845;28;8852;-77
2022/09/12 08:17:13;;;;;;;;;10.20;8.40;;;;;20.12;58.21;99334.28;5065962;28;9736;-80
2022/09/12 08:19:42;;;;;;;;;8.00;8.00;;;;;20.19;58.75;99326.00;5082410;28;8860;-77
2022/09/12 08:22:11;;;;;;;;;10.40;9.40;;;;;20.27;58.56;99324.81;5065826;28;8836;-79
2022/09/12 08:24:41;;;;;;;;;10.00;10.00;;;;;20.92;56.75;99328.06;5049425;28;8860;-79
2022/09/12 08:27:09;;;;;;;;;10.20;10.00;;;;;20.89;56.86;99326.44;5068194;28;8833;-78
2022/09/12 08:29:38;;;;;;;;;10.20;9.20;;;;;20.54;58.41;99330.66;5066187;28;8878;-79
2022/09/12 08:32:06;;;;;;;;;9.60;9.40;;;;;20.89;57.23;99323.78;5049359;28;8851;-79
2022/09/12 08:34:35;;;;;;;;;9.40;8.20;;;;;20.95;57.02;99320.00;5066030;28;9021;-79
2022/09/12 08:37:04;;;;;;;;;10.20;9.60;;;;;21.00;57.08;99316.19;5065431;28;8850;-78
2022/09/12 08:39:32;;;;;;;;;14.40;13.40;;;;;21.30;55.95;99309.47;5090778;28;8871;-79
2022/09/12 08:42:04;;;;;;;;;9.20;9.20;;;;;21.34;55.30;99314.59;5087504;28;8816;-79
2022/09/12 08:44:50;;;;;;;;;10.60;9.20;;;;;20.99;56.90;99313.63;5087080;28;8839;-80
2022/09/12 08:47:25;;;;;;;;;10.00;10.00;;;;;20.68;57.05;99306.22;5105116;28;8897;-79
2022/09/12 08:50:02;;;;;;;;;10.60;10.00;;;;;21.17;56.22;99306.56;5091726;28;9026;-80
2022/09/12 08:52:39;;;;;;;;;10.40;10.40;;;;;22.09;54.42;99291.38;5087279;28;8857;-79
2022/09/12 08:55:24;;;;;;;;;10.20;10.20;;;;;21.70;54.55;99302.25;5086305;28;8952;-79
2022/09/12 08:57:54;;;;;;;;;8.80;8.80;;;;;21.70;54.41;99300.47;5104536;28;9708;-80
2022/09/12 09:00:23;;;;;;;;;9.80;9.40;;;;;21.09;54.95;99298.13;5087830;28;8860;-78
2022/09/12 09:03:13;;;;;;;;;11.40;11.40;;;;;20.98;56.31;99291.56;5080348;28;8939;-79
2022/09/12 09:05:50;;;;;;;;;9.80;9.60;;;;;21.41;54.99;99293.91;5083728;28;8853;-79
2022/09/12 09:08:37;;;;;;;;;8.40;8.40;;;;;21.38;55.19;99286.97;5088402;28;9830;-78
2022/09/12 09:11:19;;;;;;;;;12.20;12.20;;;;;21.17;55.57;99280.03;5083412;28;8846;-78
2022/09/12 09:16:49;;;;;;;;;8.40;8.40;;;;;22.05;52.06;99273.91;5117527;27;8930;-82
2022/09/12 09:19:22;;;;;;;;;12.20;12.00;;;;;21.98;52.56;99281.34;5086446;28;8863;-82
2022/09/12 09:21:57;;;;;;;;;10.00;10.00;;;;;22.15;50.94;99299.03;5085311;28;8828;-81
2022/09/12 09:24:32;;;;;;;;;12.60;10.60;;;;;21.89;51.70;99288.88;5085226;28;8864;-79
2022/09/12 09:27:05;;;;;;;;;9.40;8.00;;;;;22.22;49.80;99270.34;5033568;28;8877;-81
2022/09/12 09:29:56;;;;;;;;;8.00;7.80;;;;;21.77;49.08;99287.72;5072273;28;8886;-81
2022/09/12 09:32:28;;;;;;;;;6.80;6.80;;;;;21.65;50.33;99286.56;5088103;28;8859;-80
2022/09/12 09:34:56;;;;;;;;;10.00;9.00;;;;;21.34;50.99;99266.84;5087659;28;8855;-79
2022/09/12 09:37:32;;;;;;;;;10.60;10.40;;;;;21.46;49.63;99278.66;5087804;28;8872;-80
2022/09/12 09:40:15;;;;;;;;;10.40;10.40;;;;;22.09;48.68;99261.31;5088774;28;8860;-80
2022/09/12 09:42:52;;;;;;;;;11.00;10.60;;;;;22.44;47.16;99274.53;5085856;28;8863;-80
2022/09/12 09:45:27;;;;;;;;;9.40;9.40;;;;;22.36;47.26;99274.94;5089090;28;8887;-82
2022/09/12 09:48:00;;;;;;;;;8.60;8.60;;;;;22.37;46.64;99266.06;5074776;28;9057;-81
2022/09/12 09:50:29;;;;;;;;;6.80;6.80;;;;;21.78;48.18;99274.38;5085061;28;8842;-81
2022/09/12 09:53:01;;;;;;;;;7.60;7.60;;;;;22.12;47.69;99272.63;5088093;28;8859;-80
2022/09/12 09:55:38;;;;;;;;;8.60;8.60;;;;;22.43;47.19;99279.00;5093518;28;8988;-82
2022/09/12 09:58:06;;;;;;;;;7.00;7.00;;;;;21.92;46.66;99288.75;5083877;28;8985;-80
2022/09/12 10:00:38;;;;;;;;;7.40;7.40;;;;;22.24;45.68;99286.22;5098030;28;8847;-80
2022/09/12 10:03:30;;;;;;;;;13.80;13.20;;;;;22.76;44.92;99284.28;5093958;28;8863;-80
2022/09/12 10:06:01;;;;;;;;;5.40;5.20;;;;;22.49;44.87;99294.59;5086274;28;8886;-80
2022/09/12 10:08:34;;;;;;;;;7.20;6.40;;;;;22.80;44.42;99269.03;5097334;28;8850;-80
2022/09/12 10:11:07;;;;;;;;;13.60;11.60;;;;;22.97;44.73;99281.41;5070491;28;8876;-74
2022/09/12 10:13:41;;;;;;;;;7.80;7.80;;;;;22.88;45.18;99271.25;5086652;28;8839;-72
2022/09/12 10:16:21;;;;;;;;;8.20;7.20;;;;;23.03;45.24;99269.56;5086688;28;8883;-72
2022/09/12 10:18:51;;;;;;;;;7.00;7.00;;;;;22.55;45.91;99286.34;5086809;28;8855;-70
2022/09/12 10:21:28;;;;;;;;;7.00;6.00;;;;;22.90;45.41;99270.22;5086544;28;8847;-71
2022/09/12 10:24:03;;;;;;;;;6.00;6.00;;;;;22.65;45.59;99275.19;5086703;28;8966;-70
2022/09/12 10:26:35;;;;;;;;;7.60;7.60;;;;;22.82;45.21;99268.97;5086274;28;8847;-72
2022/09/12 10:29:12;;;;;;;;;5.80;5.80;;;;;22.87;45.07;99269.53;5089500;28;9016;-72
2022/09/12 10:31:49;;;;;;;;;6.40;6.40;;;;;23.14;44.73;99267.19;5089624;28;8844;-70
2022/09/12 10:34:26;;;;;;;;;8.80;7.60;;;;;23.08;44.38;99260.41;5085650;28;8839;-72
2022/09/12 10:37:02;;;;;;;;;5.00;5.00;;;;;22.64;45.94;99274.31;5085632;28;8860;-73
2022/09/12 10:39:33;;;;;;;;;6.00;6.00;;;;;22.40;45.42;99287.16;5069335;28;8843;-74
2022/09/12 10:42:04;;;;;;;;;5.20;5.00;;;;;22.62;45.43;99275.34;5099558;28;8862;-78
2022/09/12 10:44:34;;;;;;;;;8.60;7.00;;;;;22.80;44.60;99273.47;5064619;28;8863;-76
2022/09/12 10:47:23;;;;;;;;;5.80;5.80;;;;;22.81;44.99;99277.88;5078931;28;8869;-76
2022/09/12 10:49:51;;;;;;;;;6.80;6.80;;;;;23.09;43.86;99263.91;5065040;28;8828;-77
2022/09/12 10:52:23;;;;;;;;;7.00;7.00;;;;;22.88;44.20;99273.94;5048655;28;8960;-76
2022/09/12 10:54:52;;;;;;;;;9.00;9.00;;;;;23.06;43.80;99277.38;5064561;28;9629;-80
2022/09/12 10:57:36;;;;;;;;;7.00;7.00;;;;;22.87;44.60;99282.84;5063931;28;9741;-76
2022/09/12 11:00:13;;;;;;;;;8.00;8.00;;;;;22.74;44.80;99272.00;5063499;28;8856;-75
2022/09/12 11:02:52;;;;;;;;;8.20;8.20;;;;;22.75;44.96;99265.75;5063798;28;9632;-77
2022/09/12 11:05:36;;;;;;;;;7.00;7.00;;;;;22.48;45.28;99274.31;5030880;28;8909;-75
2022/09/12 11:08:17;;;;;;;;;6.00;6.00;;;;;22.42;44.78;99273.75;5047359;28;8862;-77
2022/09/12 11:10:55;;;;;;;;;5.80;5.80;;;;;22.74;43.55;99266.69;5047636;28;8888;-76
2022/09/12 11:13:41;;;;;;;;;6.00;5.80;;;;;23.01;41.91;99266.97;5067283;28;8852;-76
2022/09/12 11:16:22;;;;;;;;;6.00;6.00;;;;;23.06;41.62;99261.41;5051960;28;8879;-77
2022/09/12 11:19:12;;;;;;;;;5.60;5.60;;;;;22.88;42.21;99260.63;5085703;28;8976;-78
2022/09/12 11:21:57;;;;;;;;;7.80;7.60;;;;;23.25;41.49;99264.75;5063874;28;8866;-76
2022/09/12 11:24:45;;;;;;;;;5.80;5.80;;;;;23.07;41.72;99256.00;5102445;27;8905;-76
2022/09/12 11:27:30;;;;;;;;;5.40;5.40;;;;;23.29;40.66;99268.06;5089070;28;8874;-78
2022/09/12 11:30:01;;;;;;;;;6.40;6.40;;;;;23.23;40.17;99265.78;5094609;28;8862;-77
2022/09/12 11:32:45;;;;;;;;;7.40;6.80;;;;;23.11;40.64;99262.88;5085896;28;8877;-75
2022/09/12 11:35:23;;;;;;;;;6.60;6.60;;;;;22.72;41.32;99266.81;5091688;28;8870;-78
2022/09/12 11:38:07;;;;;;;;;8.40;6.20;;;;;23.19;40.37;99265.09;5108302;27;8886;-76
2022/09/12 11:40:44;;;;;;;;;6.00;6.00;;;;;23.22;40.35;99264.06;5091055;28;8866;-77
2022/09/12 11:43:26;;;;;;;;;11.40;9.60;;;;;23.70;39.30;99246.16;5107487;28;8852;-78
2022/09/12 11:45:59;;;;;;;;;6.00;6.00;;;;;23.90;39.33;99240.53;5073061;27;8851;-77
2022/09/12 11:48:38;;;;;;;;;9.80;9.40;;;;;23.95;39.38;99253.59;5106815;27;8864;-76
2022/09/12 11:51:18;;;;;;;;;6.00;6.00;;;;;23.91;39.38;99241.41;5107978;27;8928;-76
2022/09/12 11:54:00;;;;;;;;;5.00;5.00;;;;;23.62;40.28;99256.44;5114737;28;8867;-75
2022/09/12 11:56:28;;;;;;;;;8.00;6.60;;;;;23.83;40.25;99244.53;5109050;27;8879;-79
2022/09/12 11:59:04;;;;;;;;;7.60;7.00;;;;;23.98;39.62;99257.88;5128425;27;8857;-79
2022/09/12 12:01:40;;;;;;;;;7.00;7.00;;;;;24.30;38.86;99250.56;5117329;27;8849;-75
2022/09/12 12:04:21;;;;;;;;;6.00;6.00;;;;;24.30;39.34;99255.91;5114315;27;8866;-76
2022/09/12 12:07:01;;;;;;;;;8.60;8.60;;;;;23.75;39.58;99244.94;5040905;28;8859;-78
2022/09/12 12:09:30;;;;;;;;;6.60;6.60;;;;;24.00;38.89;99251.50;5107370;28;8855;-76